createdAt,value
2023-06-10T00:00:06.860Z,425.00
2023-06-10T00:01:06.844Z,423.00
2023-06-10T00:02:06.872Z,422.00
2023-06-10T00:03:06.936Z,424.00
2023-06-10T00:04:06.945Z,425.00
2023-06-10T00:05:07.167Z,425.00
2023-06-10T00:06:06.830Z,427.00
2023-06-10T00:07:06.789Z,426.00
2023-06-10T00:08:06.799Z,426.00
2023-06-10T00:09:06.802Z,427.00
2023-06-10T00:10:06.767Z,428.00
2023-06-10T00:11:06.760Z,429.00
2023-06-10T00:12:06.769Z,427.00
2023-06-10T00:13:06.736Z,427.00
2023-06-10T00:14:06.731Z,429.00
2023-06-10T00:15:07.046Z,429.00
2023-06-10T00:16:06.721Z,430.00
2023-06-10T00:17:06.685Z,430.00
2023-06-10T00:18:06.739Z,432.00
2023-06-10T00:19:06.672Z,433.00
2023-06-10T00:20:06.654Z,431.00
2023-06-10T00:21:06.747Z,430.00
2023-06-10T00:22:06.725Z,429.00
2023-06-10T00:23:06.717Z,430.00
2023-06-10T00:24:06.788Z,432.00
2023-06-10T00:25:06.918Z,431.00
2023-06-10T00:26:06.749Z,428.00
2023-06-10T00:27:06.739Z,427.00
2023-06-10T00:28:06.742Z,427.00
2023-06-10T00:29:06.773Z,423.00
2023-06-10T00:30:06.723Z,425.00
2023-06-10T00:31:06.702Z,429.00
2023-06-10T00:32:06.781Z,426.00
2023-06-10T00:33:06.887Z,429.00
2023-06-10T00:34:06.970Z,431.00
2023-06-10T00:35:07.537Z,431.00
2023-06-10T00:36:07.095Z,432.00
2023-06-10T00:37:07.040Z,432.00
2023-06-10T00:38:07.019Z,433.00
2023-06-10T00:39:07.016Z,434.00
2023-06-10T00:40:07.007Z,434.00
2023-06-10T00:41:06.991Z,434.00
2023-06-10T00:42:06.982Z,433.00
2023-06-10T00:43:07.023Z,433.00
2023-06-10T00:44:07.003Z,430.00
2023-06-10T00:45:07.348Z,432.00
2023-06-10T00:46:07.110Z,430.00
2023-06-10T00:47:07.077Z,429.00
2023-06-10T00:48:07.099Z,428.00
2023-06-10T00:49:07.068Z,429.00
2023-06-10T00:50:07.061Z,429.00
2023-06-10T00:51:07.099Z,432.00
2023-06-10T00:52:07.074Z,432.00
2023-06-10T00:53:07.085Z,432.00
2023-06-10T00:54:07.079Z,431.00
2023-06-10T00:55:07.383Z,431.00
2023-06-10T00:56:07.039Z,434.00
2023-06-10T00:57:07.059Z,433.00
2023-06-10T00:58:07.026Z,431.00
2023-06-10T00:59:06.988Z,433.00
2023-06-10T01:00:06.982Z,430.00
2023-06-10T01:01:06.987Z,429.00
2023-06-10T01:02:06.959Z,428.00
2023-06-10T01:03:07.044Z,428.00
2023-06-10T01:04:06.907Z,430.00
2023-06-10T01:05:07.272Z,432.00
2023-06-10T01:06:06.895Z,430.00
2023-06-10T01:07:06.853Z,428.00
2023-06-10T01:08:06.855Z,428.00
2023-06-10T01:09:06.834Z,427.00
2023-06-10T01:10:06.840Z,428.00
2023-06-10T01:11:06.803Z,430.00
2023-06-10T01:12:06.788Z,429.00
2023-06-10T01:13:06.768Z,431.00
2023-06-10T01:14:06.768Z,433.00
2023-06-10T01:15:06.839Z,430.00
2023-06-10T01:16:06.728Z,429.00
2023-06-10T01:17:06.715Z,427.00
2023-06-10T01:18:06.739Z,429.00
2023-06-10T01:19:06.698Z,427.00
2023-06-10T01:20:06.671Z,425.00
2023-06-10T01:21:06.662Z,423.00
2023-06-10T01:22:06.738Z,423.00
2023-06-10T01:23:06.618Z,422.00
2023-06-10T01:24:06.645Z,422.00
2023-06-10T01:25:06.806Z,424.00
2023-06-10T01:26:06.618Z,423.00
2023-06-10T01:27:06.574Z,425.00
2023-06-10T01:28:06.555Z,425.00
2023-06-10T01:29:06.546Z,425.00
2023-06-10T01:30:06.535Z,425.00
2023-06-10T01:31:06.544Z,425.00
2023-06-10T01:32:06.517Z,427.00
2023-06-10T01:33:06.533Z,430.00
2023-06-10T01:34:06.520Z,431.00
2023-06-10T01:35:06.748Z,429.00
2023-06-10T01:36:06.717Z,429.00
2023-06-10T01:37:06.811Z,428.00
2023-06-10T01:38:06.909Z,428.00
2023-06-10T01:39:07.036Z,429.00
2023-06-10T01:40:07.196Z,428.00
2023-06-10T01:41:07.169Z,427.00
2023-06-10T01:42:07.072Z,425.00
2023-06-10T01:43:07.093Z,427.00
2023-06-10T01:44:07.125Z,426.00
2023-06-10T01:45:07.522Z,426.00
2023-06-10T01:46:07.206Z,426.00
2023-06-10T01:47:07.210Z,425.00
2023-06-10T01:48:07.162Z,421.00
2023-06-10T01:49:07.158Z,422.00
2023-06-10T01:50:07.115Z,423.00
2023-06-10T01:51:07.158Z,424.00
2023-06-10T01:52:07.189Z,428.00
2023-06-10T01:53:07.130Z,429.00
2023-06-10T01:54:07.107Z,429.00
2023-06-10T01:55:07.442Z,432.00
2023-06-10T01:56:07.205Z,432.00
2023-06-10T01:57:07.247Z,430.00
2023-06-10T01:58:07.192Z,426.00
2023-06-10T01:59:07.200Z,425.00
2023-06-10T02:00:07.127Z,425.00
2023-06-10T02:01:07.176Z,428.00
2023-06-10T02:02:07.127Z,427.00
2023-06-10T02:03:07.252Z,425.00
2023-06-10T02:04:07.326Z,425.00
2023-06-10T02:05:07.327Z,425.00
2023-06-10T02:06:07.297Z,428.00
2023-06-10T02:07:07.223Z,427.00
2023-06-10T02:08:07.178Z,425.00
2023-06-10T02:09:07.167Z,426.00
2023-06-10T02:10:07.156Z,425.00
2023-06-10T02:11:07.139Z,424.00
2023-06-10T02:12:07.258Z,426.00
2023-06-10T02:13:07.174Z,427.00
2023-06-10T02:14:07.174Z,426.00
2023-06-10T02:15:07.395Z,428.00
2023-06-10T02:16:07.231Z,428.00
2023-06-10T02:17:07.171Z,429.00
2023-06-10T02:18:07.233Z,430.00
2023-06-10T02:19:07.808Z,431.00
2023-06-10T02:20:07.184Z,432.00
2023-06-10T02:21:07.184Z,434.00
2023-06-10T02:22:07.189Z,434.00
2023-06-10T02:23:07.215Z,435.00
2023-06-10T02:24:07.232Z,436.00
2023-06-10T02:25:07.414Z,437.00
2023-06-10T02:26:07.225Z,433.00
2023-06-10T02:27:07.230Z,434.00
2023-06-10T02:28:07.240Z,435.00
2023-06-10T02:29:07.263Z,437.00
2023-06-10T02:30:07.266Z,438.00
2023-06-10T02:31:07.281Z,436.00
2023-06-10T02:32:10.457Z,434.00
2023-06-10T02:33:07.315Z,432.00
2023-06-10T02:34:07.267Z,431.00
2023-06-10T02:35:07.515Z,432.00
2023-06-10T02:36:07.242Z,433.00
2023-06-10T02:37:07.215Z,435.00
2023-06-10T02:38:07.217Z,432.00
2023-06-10T02:39:07.178Z,430.00
2023-06-10T02:40:07.194Z,429.00
2023-06-10T02:41:07.144Z,427.00
2023-06-10T02:42:07.131Z,426.00
2023-06-10T02:43:07.167Z,427.00
2023-06-10T02:44:07.086Z,428.00
2023-06-10T02:45:07.293Z,428.00
2023-06-10T02:46:07.086Z,429.00
2023-06-10T02:47:07.026Z,429.00
2023-06-10T02:48:07.032Z,429.00
2023-06-10T02:49:06.992Z,428.00
2023-06-10T02:50:06.996Z,431.00
2023-06-10T02:51:06.975Z,432.00
2023-06-10T02:52:06.954Z,431.00
2023-06-10T02:53:06.932Z,429.00
2023-06-10T02:54:06.905Z,427.00
2023-06-10T02:55:07.123Z,428.00
2023-06-10T02:56:06.892Z,428.00
2023-06-10T02:57:06.892Z,427.00
2023-06-10T02:58:06.854Z,426.00
2023-06-10T02:59:06.851Z,427.00
2023-06-10T03:00:06.843Z,427.00
2023-06-10T03:01:06.848Z,426.00
2023-06-10T03:02:06.818Z,425.00
2023-06-10T03:03:06.852Z,426.00
2023-06-10T03:04:06.865Z,424.00
2023-06-10T03:05:07.158Z,425.00
2023-06-10T03:06:06.750Z,427.00
2023-06-10T03:07:06.760Z,426.00
2023-06-10T03:08:06.787Z,424.00
2023-06-10T03:09:06.800Z,430.00
2023-06-10T03:10:06.826Z,433.00
2023-06-10T03:11:06.854Z,436.00
2023-06-10T03:12:06.858Z,437.00
2023-06-10T03:13:06.882Z,441.00
2023-06-10T03:14:06.904Z,445.00
2023-06-10T03:15:07.088Z,446.00
2023-06-10T03:16:06.979Z,449.00
2023-06-10T03:17:06.962Z,454.00
2023-06-10T03:18:07.019Z,456.00
2023-06-10T03:19:07.076Z,456.00
2023-06-10T03:20:07.073Z,459.00
2023-06-10T03:21:07.077Z,459.00
2023-06-10T03:22:07.104Z,460.00
2023-06-10T03:23:07.147Z,463.00
2023-06-10T03:24:07.236Z,463.00
2023-06-10T03:25:07.592Z,466.00
2023-06-10T03:26:07.263Z,465.00
2023-06-10T03:27:07.310Z,468.00
2023-06-10T03:28:07.363Z,468.00
2023-06-10T03:29:07.385Z,469.00
2023-06-10T03:30:07.450Z,469.00
2023-06-10T03:31:07.498Z,469.00
2023-06-10T03:32:07.569Z,470.00
2023-06-10T03:33:07.627Z,472.00
2023-06-10T03:34:07.626Z,472.00
2023-06-10T03:35:08.041Z,473.00
2023-06-10T03:36:07.718Z,474.00
2023-06-10T03:37:07.771Z,478.00
2023-06-10T03:38:07.831Z,481.00
2023-06-10T03:39:07.888Z,483.00
2023-06-10T03:40:07.951Z,485.00
2023-06-10T03:41:08.009Z,485.00
2023-06-10T03:42:08.076Z,485.00
2023-06-10T03:43:08.125Z,486.00
2023-06-10T03:44:08.179Z,484.00
2023-06-10T03:45:08.750Z,483.00
2023-06-10T03:46:08.301Z,482.00
2023-06-10T03:47:08.334Z,483.00
2023-06-10T03:48:08.484Z,483.00
2023-06-10T03:49:08.459Z,485.00
2023-06-10T03:50:08.504Z,489.00
2023-06-10T03:51:08.566Z,487.00
2023-06-10T03:52:08.598Z,488.00
2023-06-10T03:53:08.662Z,491.00
2023-06-10T03:54:08.767Z,489.00
2023-06-10T03:55:08.989Z,490.00
2023-06-10T03:56:08.848Z,486.00
2023-06-10T03:57:08.895Z,486.00
2023-06-10T03:58:08.984Z,487.00
2023-06-10T03:59:09.034Z,488.00
2023-06-10T04:00:09.097Z,489.00
2023-06-10T04:01:09.137Z,488.00
2023-06-10T04:02:09.184Z,491.00
2023-06-10T04:03:09.226Z,493.00
2023-06-10T04:04:09.119Z,494.00
2023-06-10T04:05:09.338Z,492.00
2023-06-10T04:06:09.138Z,494.00
2023-06-10T04:07:09.103Z,494.00
2023-06-10T04:08:09.095Z,494.00
2023-06-10T04:09:09.116Z,493.00
2023-06-10T04:10:09.091Z,493.00
2023-06-10T04:11:09.090Z,493.00
2023-06-10T04:12:09.076Z,492.00
2023-06-10T04:13:09.075Z,487.00
2023-06-10T04:14:09.107Z,486.00
2023-06-10T04:15:09.352Z,484.00
2023-06-10T04:16:09.057Z,485.00
2023-06-10T04:17:09.100Z,486.00
2023-06-10T04:18:09.075Z,487.00
2023-06-10T04:19:09.037Z,488.00
2023-06-10T04:20:09.063Z,492.00
2023-06-10T04:21:09.035Z,491.00
2023-06-10T04:22:09.026Z,491.00
2023-06-10T04:23:09.048Z,491.00
2023-06-10T04:24:09.108Z,486.00
2023-06-10T04:25:09.271Z,485.00
2023-06-10T04:26:09.058Z,488.00
2023-06-10T04:27:09.066Z,491.00
2023-06-10T04:28:09.067Z,491.00
2023-06-10T04:29:09.068Z,491.00
2023-06-10T04:30:09.086Z,491.00
2023-06-10T04:31:09.195Z,491.00
2023-06-10T04:32:09.114Z,492.00
2023-06-10T04:33:09.230Z,492.00
2023-06-10T04:34:09.146Z,491.00
2023-06-10T04:35:09.308Z,490.00
2023-06-10T04:36:09.168Z,490.00
2023-06-10T04:37:09.177Z,490.00
2023-06-10T04:38:09.178Z,491.00
2023-06-10T04:39:09.164Z,488.00
2023-06-10T04:40:09.156Z,490.00
2023-06-10T04:41:09.169Z,490.00
2023-06-10T04:42:09.122Z,491.00
2023-06-10T04:43:09.132Z,491.00
2023-06-10T04:44:09.102Z,492.00
2023-06-10T04:45:09.459Z,490.00
2023-06-10T04:46:09.456Z,487.00
2023-06-10T04:47:09.064Z,484.00
2023-06-10T04:48:09.107Z,485.00
2023-06-10T04:49:09.040Z,487.00
2023-06-10T04:50:09.037Z,490.00
2023-06-10T04:51:09.028Z,490.00
2023-06-10T04:52:09.023Z,490.00
2023-06-10T04:53:09.018Z,489.00
2023-06-10T04:54:09.045Z,491.00
2023-06-10T04:55:09.234Z,494.00
2023-06-10T04:56:09.081Z,490.00
2023-06-10T04:57:09.077Z,486.00
2023-06-10T04:58:09.012Z,484.00
2023-06-10T04:59:09.023Z,484.00
2023-06-10T05:00:09.073Z,486.00
2023-06-10T05:01:09.014Z,487.00
2023-06-10T05:02:09.095Z,485.00
2023-06-10T05:03:09.089Z,484.00
2023-06-10T05:04:09.153Z,483.00
2023-06-10T05:05:09.340Z,483.00
2023-06-10T05:06:09.103Z,481.00
2023-06-10T05:07:09.303Z,481.00
2023-06-10T05:08:09.328Z,479.00
2023-06-10T05:09:09.168Z,480.00
2023-06-10T05:10:09.269Z,480.00
2023-06-10T05:11:09.303Z,478.00
2023-06-10T05:12:09.313Z,483.00
2023-06-10T05:13:09.272Z,483.00
2023-06-10T05:14:09.279Z,482.00
2023-06-10T05:15:09.682Z,482.00
2023-06-10T05:16:09.372Z,480.00
2023-06-10T05:17:09.365Z,477.00
2023-06-10T05:18:09.474Z,478.00
2023-06-10T05:19:09.408Z,476.00
2023-06-10T05:20:09.447Z,476.00
2023-06-10T05:21:09.462Z,478.00
2023-06-10T05:22:09.555Z,477.00
2023-06-10T05:23:09.512Z,479.00
2023-06-10T05:24:09.585Z,479.00
2023-06-10T05:25:09.950Z,476.00
2023-06-10T05:26:09.595Z,475.00
2023-06-10T05:27:09.633Z,478.00
2023-06-10T05:28:09.660Z,479.00
2023-06-10T05:29:09.679Z,477.00
2023-06-10T05:30:09.703Z,477.00
2023-06-10T05:31:09.751Z,477.00
2023-06-10T05:32:09.921Z,477.00
2023-06-10T05:33:09.892Z,478.00
2023-06-10T05:34:09.812Z,476.00
2023-06-10T05:35:10.057Z,475.00
2023-06-10T05:36:09.911Z,473.00
2023-06-10T05:37:09.979Z,473.00
2023-06-10T05:38:10.064Z,474.00
2023-06-10T05:39:09.937Z,472.00
2023-06-10T05:40:09.965Z,470.00
2023-06-10T05:41:09.999Z,468.00
2023-06-10T05:42:10.039Z,469.00
2023-06-10T05:43:10.074Z,472.00
2023-06-10T05:44:11.921Z,474.00
2023-06-10T05:45:10.337Z,475.00
2023-06-10T05:46:10.258Z,473.00
2023-06-10T05:47:10.073Z,475.00
2023-06-10T05:48:10.126Z,478.00
2023-06-10T05:49:10.046Z,477.00
2023-06-10T05:50:10.041Z,474.00
2023-06-10T05:51:10.036Z,472.00
2023-06-10T05:52:10.054Z,472.00
2023-06-10T05:53:10.064Z,471.00
2023-06-10T05:54:10.041Z,469.00
2023-06-10T05:55:10.429Z,471.00
2023-06-10T05:56:10.041Z,472.00
2023-06-10T05:57:10.057Z,471.00
2023-06-10T05:58:10.029Z,472.00
2023-06-10T05:59:09.993Z,474.00
2023-06-10T06:00:10.003Z,474.00
2023-06-10T06:01:10.003Z,472.00
2023-06-10T06:02:10.020Z,472.00
2023-06-10T06:03:10.155Z,471.00
2023-06-10T06:04:10.027Z,470.00
2023-06-10T06:05:10.351Z,469.00
2023-06-10T06:06:09.964Z,467.00
2023-06-10T06:07:09.949Z,464.00
2023-06-10T06:08:09.951Z,462.00
2023-06-10T06:09:09.940Z,460.00
2023-06-10T06:10:09.957Z,459.00
2023-06-10T06:11:09.939Z,460.00
2023-06-10T06:12:09.944Z,463.00
2023-06-10T06:13:09.936Z,462.00
2023-06-10T06:14:09.906Z,460.00
2023-06-10T06:15:10.089Z,458.00
2023-06-10T06:16:09.902Z,460.00
2023-06-10T06:17:09.856Z,461.00
2023-06-10T06:18:09.903Z,463.00
2023-06-10T06:19:09.842Z,461.00
2023-06-10T06:20:09.854Z,462.00
2023-06-10T06:21:09.832Z,462.00
2023-06-10T06:22:09.818Z,461.00
2023-06-10T06:23:09.811Z,459.00
2023-06-10T06:24:09.866Z,458.00
2023-06-10T06:25:10.280Z,458.00
2023-06-10T06:26:09.780Z,457.00
2023-06-10T06:27:09.771Z,455.00
2023-06-10T06:28:09.800Z,454.00
2023-06-10T06:29:09.746Z,455.00
2023-06-10T06:30:09.748Z,456.00
2023-06-10T06:31:09.772Z,454.00
2023-06-10T06:32:09.712Z,453.00
2023-06-10T06:33:09.754Z,452.00
2023-06-10T06:34:09.684Z,451.00
2023-06-10T06:35:10.099Z,453.00
2023-06-10T06:36:09.651Z,454.00
2023-06-10T06:37:09.629Z,455.00
2023-06-10T06:38:09.638Z,455.00
2023-06-10T06:39:09.635Z,455.00
2023-06-10T06:40:09.610Z,454.00
2023-06-10T06:41:09.594Z,449.00
2023-06-10T06:42:09.606Z,451.00
2023-06-10T06:43:09.580Z,451.00
2023-06-10T06:44:09.618Z,450.00
2023-06-10T06:45:09.766Z,449.00
2023-06-10T06:46:09.552Z,450.00
2023-06-10T06:47:09.558Z,447.00
2023-06-10T06:48:09.673Z,449.00
2023-06-10T06:49:09.520Z,449.00
2023-06-10T06:50:09.514Z,451.00
2023-06-10T06:51:09.534Z,447.00
2023-06-10T06:52:09.494Z,447.00
2023-06-10T06:53:09.503Z,447.00
2023-06-10T06:54:09.484Z,447.00
2023-06-10T06:55:09.810Z,447.00
2023-06-10T06:56:09.474Z,446.00
2023-06-10T06:57:09.461Z,447.00
2023-06-10T06:58:09.462Z,448.00
2023-06-10T06:59:09.458Z,446.00
2023-06-10T07:00:09.431Z,447.00
2023-06-10T07:01:09.518Z,446.00
2023-06-10T07:02:09.430Z,447.00
2023-06-10T07:03:09.528Z,448.00
2023-06-10T07:04:09.418Z,446.00
2023-06-10T07:05:09.712Z,446.00
2023-06-10T07:06:09.371Z,443.00
2023-06-10T07:07:09.365Z,444.00
2023-06-10T07:08:09.363Z,445.00
2023-06-10T07:09:09.356Z,445.00
2023-06-10T07:10:09.357Z,447.00
2023-06-10T07:11:09.334Z,447.00
2023-06-10T07:12:09.340Z,448.00
2023-06-10T07:13:09.326Z,449.00
2023-06-10T07:14:09.305Z,445.00
2023-06-10T07:15:09.644Z,443.00
2023-06-10T07:16:09.287Z,443.00
2023-06-10T07:17:09.449Z,443.00
2023-06-10T07:18:09.362Z,445.00
2023-06-10T07:19:09.282Z,443.00
2023-06-10T07:20:09.285Z,442.00
2023-06-10T07:21:09.273Z,442.00
2023-06-10T07:22:09.250Z,443.00
2023-06-10T07:23:09.256Z,443.00
2023-06-10T07:24:09.250Z,439.00
2023-06-10T07:25:09.543Z,440.00
2023-06-10T07:26:09.214Z,438.00
2023-06-10T07:27:09.199Z,441.00
2023-06-10T07:28:09.200Z,443.00
2023-06-10T07:29:09.185Z,438.00
2023-06-10T07:30:09.163Z,434.00
2023-06-10T07:31:09.222Z,432.00
2023-06-10T07:32:09.156Z,432.00
2023-06-10T07:33:09.244Z,432.00
2023-06-10T07:34:09.178Z,430.00
2023-06-10T07:35:09.475Z,428.00
2023-06-10T07:36:09.126Z,427.00
2023-06-10T07:37:09.158Z,428.00
2023-06-10T07:38:09.195Z,430.00
2023-06-10T07:39:09.246Z,432.00
2023-06-10T07:40:09.286Z,435.00
2023-06-10T07:41:09.337Z,437.00
2023-06-10T07:42:09.367Z,435.00
2023-06-10T07:43:09.421Z,434.00
2023-06-10T07:44:09.449Z,434.00
2023-06-10T07:45:09.623Z,433.00
2023-06-10T07:46:09.565Z,432.00
2023-06-10T07:47:09.605Z,432.00
2023-06-10T07:48:09.690Z,434.00
2023-06-10T07:49:09.704Z,432.00
2023-06-10T07:50:09.767Z,432.00
2023-06-10T07:51:09.823Z,433.00
2023-06-10T07:52:09.882Z,430.00
2023-06-10T07:53:09.966Z,427.00
2023-06-10T07:54:10.002Z,425.00
2023-06-10T07:55:10.166Z,428.00
2023-06-10T07:56:10.127Z,430.00
2023-06-10T07:57:10.170Z,431.00
2023-06-10T07:58:10.162Z,431.00
2023-06-10T07:59:10.130Z,429.00
2023-06-10T08:00:10.138Z,428.00
2023-06-10T08:01:10.107Z,430.00
2023-06-10T08:02:10.086Z,430.00
2023-06-10T08:03:10.176Z,429.00
2023-06-10T08:04:10.171Z,427.00
2023-06-10T08:05:10.320Z,427.00
2023-06-10T08:06:10.031Z,425.00
2023-06-10T08:07:10.068Z,423.00
2023-06-10T08:08:10.121Z,426.00
2023-06-10T08:09:10.168Z,427.00
2023-06-10T08:10:10.234Z,425.00
2023-06-10T08:11:10.259Z,425.00
2023-06-10T08:12:10.304Z,423.00
2023-06-10T08:13:10.349Z,422.00
2023-06-10T08:14:10.410Z,425.00
2023-06-10T08:15:10.804Z,427.00
2023-06-10T08:16:10.500Z,427.00
2023-06-10T08:17:10.512Z,425.00
2023-06-10T08:18:10.645Z,425.00
2023-06-10T08:19:10.613Z,428.00
2023-06-10T08:20:10.620Z,428.00
2023-06-10T08:21:10.656Z,428.00
2023-06-10T08:22:10.693Z,425.00
2023-06-10T08:23:10.742Z,423.00
2023-06-10T08:24:10.875Z,423.00
2023-06-10T08:25:11.148Z,423.00
2023-06-10T08:26:10.851Z,425.00
2023-06-10T08:27:10.876Z,425.00
2023-06-10T08:28:10.928Z,424.00
2023-06-10T08:29:10.938Z,424.00
2023-06-10T08:30:10.983Z,423.00
2023-06-10T08:31:11.005Z,421.00
2023-06-10T08:32:11.082Z,423.00
2023-06-10T08:33:11.141Z,422.00
2023-06-10T08:34:11.028Z,424.00
2023-06-10T08:35:11.222Z,422.00
2023-06-10T08:36:11.002Z,426.00
2023-06-10T08:37:10.981Z,428.00
2023-06-10T08:38:10.966Z,430.00
2023-06-10T08:39:10.941Z,432.00
2023-06-10T08:40:10.920Z,430.00
2023-06-10T08:41:10.918Z,429.00
2023-06-10T08:42:10.922Z,430.00
2023-06-10T08:43:10.901Z,431.00
2023-06-10T08:44:10.850Z,431.00
2023-06-10T08:45:11.128Z,429.00
2023-06-10T08:46:10.818Z,432.00
2023-06-10T08:47:10.804Z,434.00
2023-06-10T08:48:10.875Z,433.00
2023-06-10T08:49:10.839Z,435.00
2023-06-10T08:50:12.711Z,433.00
2023-06-10T08:51:10.739Z,430.00
2023-06-10T08:52:10.728Z,432.00
2023-06-10T08:53:10.727Z,431.00
2023-06-10T08:54:10.698Z,430.00
2023-06-10T08:55:10.920Z,432.00
2023-06-10T08:56:10.679Z,432.00
2023-06-10T08:57:10.666Z,431.00
2023-06-10T08:58:10.637Z,430.00
2023-06-10T08:59:10.677Z,430.00
2023-06-10T09:00:10.887Z,425.00
2023-06-10T09:01:10.782Z,427.00
2023-06-10T09:02:10.710Z,426.00
2023-06-10T09:03:10.776Z,424.00
2023-06-10T09:04:10.723Z,425.00
2023-06-10T09:05:10.654Z,425.00
2023-06-10T09:06:10.645Z,424.00
2023-06-10T09:07:10.600Z,426.00
2023-06-10T09:08:10.589Z,430.00
2023-06-10T09:09:10.572Z,429.00
2023-06-10T09:10:10.767Z,430.00
2023-06-10T09:11:10.558Z,431.00
2023-06-10T09:12:10.562Z,431.00
2023-06-10T09:13:10.529Z,427.00
2023-06-10T09:14:10.509Z,429.00
2023-06-10T09:15:10.498Z,430.00
2023-06-10T09:16:10.520Z,433.00
2023-06-10T09:17:10.508Z,430.00
2023-06-10T09:18:10.613Z,429.00
2023-06-10T09:19:10.569Z,427.00
2023-06-10T09:20:11.232Z,422.00
2023-06-10T09:21:10.538Z,426.00
2023-06-10T09:22:10.573Z,427.00
2023-06-10T09:23:10.576Z,427.00
2023-06-10T09:24:10.582Z,429.00
2023-06-10T09:25:10.507Z,431.00
2023-06-10T09:26:10.835Z,433.00
2023-06-10T09:27:10.529Z,431.00
2023-06-10T09:28:10.457Z,430.00
2023-06-10T09:29:10.586Z,429.00
2023-06-10T09:30:10.591Z,429.00
2023-06-10T09:31:10.453Z,430.00
2023-06-10T09:32:10.778Z,429.00
2023-06-10T09:33:10.436Z,432.00
2023-06-10T09:34:10.326Z,430.00
2023-06-10T09:35:10.284Z,432.00
2023-06-10T09:36:10.308Z,431.00
2023-06-10T09:37:10.299Z,430.00
2023-06-10T09:38:10.920Z,428.00
2023-06-10T09:39:10.228Z,427.00
2023-06-10T09:40:10.583Z,427.00
2023-06-10T09:41:10.175Z,426.00
2023-06-10T09:42:10.222Z,421.00
2023-06-10T09:43:10.161Z,424.00
2023-06-10T09:44:10.340Z,429.00
2023-06-10T09:45:10.108Z,426.00
2023-06-10T09:46:10.121Z,425.00
2023-06-10T09:47:10.073Z,425.00
2023-06-10T09:48:10.108Z,427.00
2023-06-10T09:49:10.054Z,426.00
2023-06-10T09:50:11.413Z,428.00
2023-06-10T09:51:10.091Z,427.00
2023-06-10T09:52:10.035Z,425.00
2023-06-10T09:53:10.001Z,422.00
2023-06-10T09:54:09.952Z,423.00
2023-06-10T09:55:09.943Z,423.00
2023-06-10T09:56:11.086Z,425.00
2023-06-10T09:57:09.956Z,430.00
2023-06-10T09:58:09.962Z,431.00
2023-06-10T09:59:09.864Z,430.00
2023-06-10T10:00:10.193Z,430.00
2023-06-10T10:01:09.844Z,429.00
2023-06-10T10:02:11.349Z,426.00
2023-06-10T10:03:09.833Z,423.00
2023-06-10T10:04:09.796Z,425.00
2023-06-10T10:05:10.051Z,427.00
2023-06-10T10:06:09.786Z,430.00
2023-06-10T10:07:09.750Z,428.00
2023-06-10T10:08:09.734Z,426.00
2023-06-10T10:09:09.792Z,423.00
2023-06-10T10:10:09.715Z,425.00
2023-06-10T10:11:09.713Z,424.00
2023-06-10T10:12:09.705Z,418.00
2023-06-10T10:13:09.747Z,417.00
2023-06-10T10:14:10.878Z,415.00
2023-06-10T10:15:10.029Z,416.00
2023-06-10T10:16:09.762Z,416.00
2023-06-10T10:17:09.863Z,420.00
2023-06-10T10:18:10.104Z,421.00
2023-06-10T10:19:09.698Z,418.00
2023-06-10T10:20:09.673Z,419.00
2023-06-10T10:21:09.649Z,421.00
2023-06-10T10:22:09.622Z,418.00
2023-06-10T10:23:09.626Z,415.00
2023-06-10T10:24:09.605Z,417.00
2023-06-10T10:25:09.902Z,422.00
2023-06-10T10:26:10.871Z,419.00
2023-06-10T10:27:09.597Z,416.00
2023-06-10T10:28:09.546Z,419.00
2023-06-10T10:29:09.513Z,419.00
2023-06-10T10:30:09.592Z,419.00
2023-06-10T10:31:09.518Z,422.00
2023-06-10T10:32:09.676Z,425.00
2023-06-10T10:33:11.054Z,424.00
2023-06-10T10:34:09.779Z,427.00
2023-06-10T10:35:09.918Z,430.00
2023-06-10T10:36:09.625Z,424.00
2023-06-10T10:37:09.678Z,422.00
2023-06-10T10:38:09.586Z,424.00
2023-06-10T10:39:09.565Z,423.00
2023-06-10T10:40:09.566Z,425.00
2023-06-10T10:41:09.534Z,427.00
2023-06-10T10:42:09.622Z,425.00
2023-06-10T10:43:09.512Z,425.00
2023-06-10T10:44:09.497Z,426.00
2023-06-10T10:45:09.738Z,422.00
2023-06-10T10:46:09.473Z,422.00
2023-06-10T10:47:09.430Z,424.00
2023-06-10T10:48:09.458Z,424.00
2023-06-10T10:49:09.432Z,422.00
2023-06-10T10:50:10.039Z,423.00
2023-06-10T10:51:09.372Z,423.00
2023-06-10T10:52:09.357Z,426.00
2023-06-10T10:53:09.362Z,426.00
2023-06-10T10:54:09.304Z,424.00
2023-06-10T10:55:09.525Z,428.00
2023-06-10T10:56:09.844Z,427.00
2023-06-10T10:57:09.604Z,429.00
2023-06-10T10:58:09.501Z,427.00
2023-06-10T10:59:09.512Z,427.00
2023-06-10T11:00:09.655Z,431.00
2023-06-10T11:01:09.613Z,431.00
2023-06-10T11:02:09.798Z,432.00
2023-06-10T11:03:11.485Z,431.00
2023-06-10T11:04:09.897Z,429.00
2023-06-10T11:05:10.055Z,430.00
2023-06-10T11:06:09.823Z,432.00
2023-06-10T11:07:09.882Z,432.00
2023-06-10T11:08:09.926Z,430.00
2023-06-10T11:09:10.044Z,432.00
2023-06-10T11:10:10.038Z,433.00
2023-06-10T11:11:10.053Z,433.00
2023-06-10T11:12:10.108Z,430.00
2023-06-10T11:13:10.178Z,430.00
2023-06-10T11:14:10.218Z,431.00
2023-06-10T11:15:10.598Z,433.00
2023-06-10T11:16:10.312Z,432.00
2023-06-10T11:17:10.341Z,429.00
2023-06-10T11:18:10.404Z,428.00
2023-06-10T11:19:10.592Z,426.00
2023-06-10T11:20:10.393Z,427.00
2023-06-10T11:21:10.397Z,430.00
2023-06-10T11:22:10.344Z,429.00
2023-06-10T11:23:10.398Z,431.00
2023-06-10T11:24:10.419Z,432.00
2023-06-10T11:25:10.553Z,432.00
2023-06-10T11:26:10.254Z,432.00
2023-06-10T11:27:10.242Z,431.00
2023-06-10T11:28:10.361Z,429.00
2023-06-10T11:29:10.344Z,429.00
2023-06-10T11:30:10.354Z,429.00
2023-06-10T11:31:10.415Z,431.00
2023-06-10T11:32:10.578Z,430.00
2023-06-10T11:33:10.506Z,430.00
2023-06-10T11:34:10.501Z,432.00
2023-06-10T11:35:10.734Z,436.00
2023-06-10T11:36:10.594Z,437.00
2023-06-10T11:37:10.633Z,436.00
2023-06-10T11:38:10.692Z,434.00
2023-06-10T11:39:10.746Z,432.00
2023-06-10T11:40:10.776Z,429.00
2023-06-10T11:41:10.802Z,430.00
2023-06-10T11:42:10.855Z,431.00
2023-06-10T11:43:10.881Z,431.00
2023-06-10T11:44:10.916Z,429.00
2023-06-10T11:45:11.247Z,430.00
2023-06-10T11:46:11.013Z,429.00
2023-06-10T11:47:11.032Z,423.00
2023-06-10T11:48:11.109Z,422.00
2023-06-10T11:49:11.157Z,424.00
2023-06-10T11:50:11.202Z,427.00
2023-06-10T11:51:11.187Z,428.00
2023-06-10T11:52:11.227Z,426.00
2023-06-10T11:53:11.288Z,430.00
2023-06-10T11:54:11.322Z,432.00
2023-06-10T11:55:11.624Z,431.00
2023-06-10T11:56:11.380Z,430.00
2023-06-10T11:57:11.391Z,428.00
2023-06-10T11:58:11.429Z,430.00
2023-06-10T11:59:11.495Z,427.00
2023-06-10T12:00:11.523Z,424.00
2023-06-10T12:01:13.282Z,423.00
2023-06-10T12:02:11.625Z,423.00
2023-06-10T12:03:11.725Z,425.00
2023-06-10T12:04:11.713Z,425.00
2023-06-10T12:05:12.030Z,422.00
2023-06-10T12:06:11.811Z,423.00
2023-06-10T12:07:11.840Z,424.00
2023-06-10T12:08:11.876Z,427.00
2023-06-10T12:09:22.682Z,427.00
2023-06-10T12:10:26.492Z,426.00
2023-06-10T12:11:12.887Z,423.00
2023-06-10T12:12:11.855Z,426.00
2023-06-10T12:13:11.846Z,425.00
2023-06-10T12:14:11.820Z,426.00
2023-06-10T12:15:12.054Z,427.00
2023-06-10T12:16:11.808Z,426.00
2023-06-10T12:17:11.785Z,429.00
2023-06-10T12:18:11.818Z,429.00
2023-06-10T12:19:11.737Z,429.00
2023-06-10T12:20:11.753Z,428.00
2023-06-10T12:21:11.816Z,424.00
2023-06-10T12:22:11.866Z,425.00
2023-06-10T12:23:11.939Z,426.00
2023-06-10T12:24:12.028Z,428.00
2023-06-10T12:25:12.629Z,429.00
2023-06-10T12:26:11.930Z,428.00
2023-06-10T12:27:11.915Z,427.00
2023-06-10T12:28:11.880Z,428.00